createdAt,value
2023-01-13T00:00:18.663Z,2.67
2023-01-13T00:02:46.037Z,2.57
2023-01-13T00:05:13.392Z,1.97
2023-01-13T00:07:40.741Z,1.80
2023-01-13T00:10:10.176Z,1.87
2023-01-13T00:12:43.796Z,4.33
2023-01-13T00:15:11.721Z,1.93
2023-01-13T00:17:39.240Z,4.60
2023-01-13T00:20:07.642Z,2.00
2023-01-13T00:22:36.135Z,3.00
2023-01-13T00:25:04.704Z,4.57
2023-01-13T00:27:32.190Z,3.30
2023-01-13T00:29:59.710Z,1.53
2023-01-13T00:32:27.804Z,1.70
2023-01-13T00:34:55.215Z,1.83
2023-01-13T00:37:22.814Z,2.77
2023-01-13T00:39:52.006Z,1.60
2023-01-13T00:42:38.346Z,3.87
2023-01-13T00:45:06.369Z,1.83
2023-01-13T00:47:33.596Z,4.70
2023-01-13T00:50:00.797Z,2.87
2023-01-13T00:52:28.024Z,1.87
2023-01-13T00:54:55.253Z,1.53
2023-01-13T00:57:22.590Z,2.73
2023-01-13T00:59:49.844Z,1.80
2023-01-13T01:02:17.353Z,1.97
2023-01-13T01:04:44.707Z,2.67
2023-01-13T01:07:11.908Z,1.40
2023-01-13T01:09:39.670Z,1.30
2023-01-13T01:12:07.124Z,2.83
2023-01-13T01:14:34.536Z,2.13
2023-01-13T01:17:01.906Z,1.57
2023-01-13T01:19:29.245Z,1.83
2023-01-13T01:21:56.566Z,2.10
2023-01-13T01:24:24.042Z,4.10
2023-01-13T01:26:51.378Z,1.23
2023-01-13T01:29:18.639Z,1.97
2023-01-13T01:31:46.031Z,1.93
2023-01-13T01:34:13.335Z,1.50
2023-01-13T01:36:40.564Z,1.20
2023-01-13T01:39:08.140Z,1.53
2023-01-13T01:41:36.398Z,1.83
2023-01-13T01:44:30.693Z,2.83
2023-01-13T01:46:58.299Z,1.50
2023-01-13T01:49:33.803Z,1.90
2023-01-13T01:52:06.371Z,2.73
2023-01-13T01:54:53.781Z,1.60
2023-01-13T01:57:37.231Z,1.67
2023-01-13T02:00:05.870Z,1.63
2023-01-13T02:02:33.866Z,3.53
2023-01-13T02:05:01.683Z,1.40
2023-01-13T02:07:32.266Z,3.27
2023-01-13T02:10:05.023Z,1.47
2023-01-13T02:12:32.773Z,2.23
2023-01-13T02:15:07.199Z,1.50
2023-01-13T02:17:59.043Z,1.30
2023-01-13T02:20:47.286Z,1.77
2023-01-13T02:24:05.029Z,1.40
2023-01-13T02:27:03.721Z,1.43
2023-01-13T02:30:01.642Z,2.53
2023-01-13T02:33:10.561Z,1.57
2023-01-13T02:35:45.803Z,2.20
2023-01-13T02:38:16.078Z,2.37
2023-01-13T02:40:56.930Z,2.63
2023-01-13T02:43:53.779Z,2.60
2023-01-13T02:46:52.264Z,2.00
2023-01-13T02:49:30.611Z,4.13
2023-01-13T02:52:05.149Z,3.23
2023-01-13T02:54:35.585Z,3.80
2023-01-13T02:57:04.051Z,1.93
2023-01-13T02:59:32.786Z,3.47
2023-01-13T03:02:01.389Z,3.57
2023-01-13T03:04:55.243Z,3.17
2023-01-13T03:07:38.749Z,2.40
2023-01-13T03:10:17.810Z,2.13
2023-01-13T03:12:56.181Z,3.73
2023-01-13T03:15:47.833Z,3.13
2023-01-13T03:18:24.618Z,4.57
2023-01-13T03:21:08.333Z,2.67
2023-01-13T03:23:37.746Z,4.57
2023-01-13T03:26:10.283Z,2.20
2023-01-13T03:28:52.644Z,3.17
2023-01-13T03:31:25.848Z,2.37
2023-01-13T03:34:02.363Z,4.10
2023-01-13T03:36:32.570Z,2.93
2023-01-13T03:39:06.518Z,3.47
2023-01-13T03:41:40.691Z,3.60
2023-01-13T03:44:35.911Z,2.53
2023-01-13T03:47:21.789Z,3.83
2023-01-13T03:49:58.245Z,3.10
2023-01-13T03:52:35.417Z,5.23
2023-01-13T03:55:21.018Z,4.30
2023-01-13T03:58:20.183Z,3.70
2023-01-13T04:01:13.108Z,4.73
2023-01-13T04:03:51.263Z,5.10
2023-01-13T04:06:51.884Z,2.77
2023-01-13T04:09:56.871Z,4.67
2023-01-13T04:12:49.126Z,2.17
2023-01-13T04:15:19.048Z,4.20
2023-01-13T04:17:46.328Z,5.27
2023-01-13T04:20:13.624Z,6.70
2023-01-13T04:22:40.751Z,2.77
2023-01-13T04:25:08.933Z,3.10
2023-01-13T04:27:36.575Z,5.03
2023-01-13T04:30:04.800Z,2.57
2023-01-13T04:32:31.926Z,5.23
2023-01-13T04:34:59.033Z,5.27
2023-01-13T04:37:26.128Z,3.83
2023-01-13T04:39:53.338Z,3.27
2023-01-13T04:42:20.442Z,2.83
2023-01-13T04:44:47.552Z,2.83
2023-01-13T04:47:14.649Z,2.80
2023-01-13T04:49:41.772Z,2.47
2023-01-13T04:52:08.945Z,3.83
2023-01-13T04:54:36.119Z,2.77
2023-01-13T04:57:03.207Z,2.83
2023-01-13T04:59:30.350Z,4.30
2023-01-13T05:01:57.622Z,3.90
2023-01-13T05:04:24.887Z,4.30
2023-01-13T05:06:52.133Z,2.40
2023-01-13T05:09:19.330Z,5.87
2023-01-13T05:12:05.064Z,4.70
2023-01-13T05:14:50.742Z,2.40
2023-01-13T05:17:24.293Z,14.80
2023-01-13T05:19:51.848Z,3.23
2023-01-13T05:22:37.717Z,6.33
2023-01-13T05:25:24.819Z,12.87
2023-01-13T05:27:57.062Z,3.80
2023-01-13T05:30:30.082Z,5.33
2023-01-13T05:32:57.550Z,7.07
2023-01-13T05:35:25.286Z,2.37
2023-01-13T05:37:52.382Z,2.80
2023-01-13T05:40:38.007Z,6.47
2023-01-13T05:43:24.709Z,3.07
2023-01-13T05:46:03.603Z,4.67
2023-01-13T05:48:39.369Z,4.57
2023-01-13T05:51:08.942Z,4.30
2023-01-13T05:53:36.581Z,7.07
2023-01-13T05:56:07.701Z,4.53
2023-01-13T05:58:35.606Z,4.13
2023-01-13T06:01:05.541Z,4.03
2023-01-13T06:03:32.722Z,5.97
2023-01-13T06:06:01.957Z,3.93
2023-01-13T06:08:30.211Z,4.43
2023-01-13T06:10:57.722Z,6.10
2023-01-13T06:13:25.564Z,3.83
2023-01-13T06:15:57.184Z,7.90
2023-01-13T06:18:24.525Z,4.67
2023-01-13T06:20:51.639Z,4.67
2023-01-13T06:23:19.363Z,3.13
2023-01-13T06:26:08.487Z,4.07
2023-01-13T06:28:35.776Z,4.50
2023-01-13T06:31:07.555Z,3.60
2023-01-13T06:33:39.294Z,4.10
2023-01-13T06:36:39.405Z,5.10
2023-01-13T06:39:08.385Z,4.40
2023-01-13T06:41:54.093Z,4.37
2023-01-13T06:44:23.222Z,3.27
2023-01-13T06:46:51.908Z,3.90
2023-01-13T06:49:21.465Z,3.93
2023-01-13T06:51:49.039Z,4.70
2023-01-13T06:54:16.155Z,2.80
2023-01-13T06:56:43.347Z,2.73
2023-01-13T06:59:10.533Z,2.30
2023-01-13T07:01:38.259Z,2.53
2023-01-13T07:04:05.491Z,5.07
2023-01-13T07:06:32.662Z,3.53
2023-01-13T07:08:59.822Z,4.73
2023-01-13T07:11:27.140Z,2.70
2023-01-13T07:14:12.917Z,3.03
2023-01-13T07:16:40.042Z,3.07
2023-01-13T07:19:07.329Z,3.93
2023-01-13T07:21:34.458Z,3.10
2023-01-13T07:24:01.568Z,2.67
2023-01-13T07:26:28.741Z,3.80
2023-01-13T07:28:55.825Z,3.27
2023-01-13T07:31:22.989Z,4.57
2023-01-13T07:33:50.165Z,5.27
2023-01-13T07:36:17.380Z,4.20
2023-01-13T07:38:44.796Z,6.00
2023-01-13T07:41:33.980Z,6.47
2023-01-13T07:44:04.989Z,4.93
2023-01-13T07:46:33.373Z,4.13
2023-01-13T07:49:00.621Z,3.90
2023-01-13T07:51:27.770Z,4.47
2023-01-13T07:53:55.139Z,3.90
2023-01-13T07:56:22.521Z,5.60
2023-01-13T07:58:51.210Z,4.77
2023-01-13T08:01:19.328Z,3.67
2023-01-13T08:03:46.437Z,3.53
2023-01-13T08:06:14.357Z,3.10
2023-01-13T08:08:41.712Z,3.90
2023-01-13T08:11:09.255Z,3.17
2023-01-13T08:13:37.132Z,4.57
2023-01-13T08:16:07.653Z,3.60
2023-01-13T08:18:36.149Z,4.07
2023-01-13T08:21:06.167Z,4.10
2023-01-13T08:23:33.680Z,6.27
2023-01-13T08:26:03.217Z,2.93
2023-01-13T08:28:30.417Z,3.83
2023-01-13T08:31:03.021Z,4.90
2023-01-13T08:33:30.453Z,4.77
2023-01-13T08:35:58.180Z,3.90
2023-01-13T08:38:26.049Z,3.63
2023-01-13T08:40:53.281Z,5.40
2023-01-13T08:43:20.410Z,3.50
2023-01-13T08:45:59.848Z,4.30
2023-01-13T08:48:31.292Z,4.07
2023-01-13T08:51:05.530Z,6.27
2023-01-13T08:53:32.807Z,2.77
2023-01-13T08:56:00.000Z,2.57
2023-01-13T08:58:27.278Z,4.23
2023-01-13T09:00:54.616Z,3.30
2023-01-13T09:03:22.182Z,1.70
2023-01-13T09:05:49.446Z,3.30
2023-01-13T09:08:16.572Z,3.47
2023-01-13T09:10:43.823Z,3.23
2023-01-13T09:13:15.821Z,3.80
2023-01-13T09:15:47.391Z,1.70
2023-01-13T09:18:14.948Z,2.30
2023-01-13T09:20:42.097Z,1.63
2023-01-13T09:23:11.040Z,1.50
2023-01-13T09:25:39.045Z,7.40
2023-01-13T09:28:08.353Z,1.47
2023-01-13T09:30:36.945Z,24.23
2023-01-13T09:33:22.617Z,3.30
2023-01-13T09:35:49.700Z,2.93
2023-01-13T09:38:16.864Z,8.03
2023-01-13T09:40:44.384Z,2.20
2023-01-13T09:43:53.915Z,6.20
2023-01-13T09:46:47.319Z,2.87
2023-01-13T09:49:25.566Z,3.23
2023-01-13T09:52:15.996Z,1.50
2023-01-13T09:55:11.671Z,1.83
2023-01-13T09:57:40.110Z,1.60
2023-01-13T10:00:29.098Z,1.97
2023-01-13T10:03:08.432Z,2.10
2023-01-13T10:05:42.593Z,2.20
2023-01-13T10:08:18.703Z,2.00
2023-01-13T10:10:58.916Z,1.77
2023-01-13T10:13:31.420Z,1.73
2023-01-13T10:16:10.839Z,1.93
2023-01-13T10:19:05.835Z,2.33
2023-01-13T10:22:09.167Z,1.30
2023-01-13T10:24:48.512Z,1.00
2023-01-13T10:27:30.944Z,2.10
2023-01-13T10:29:58.120Z,2.23
2023-01-13T10:32:27.789Z,1.97
2023-01-13T10:34:57.760Z,2.37
2023-01-13T10:37:27.396Z,0.90
2023-01-13T10:39:57.071Z,3.07
2023-01-13T10:42:25.681Z,0.83
2023-01-13T10:44:55.692Z,1.30
2023-01-13T10:47:31.595Z,0.57
2023-01-13T10:50:24.678Z,0.87
2023-01-13T10:53:01.653Z,1.57
2023-01-13T10:55:33.478Z,0.87
2023-01-13T10:58:14.538Z,0.60
2023-01-13T11:00:42.094Z,0.50
2023-01-13T11:03:22.892Z,1.50
2023-01-13T11:05:56.445Z,0.47
2023-01-13T11:08:31.337Z,0.70
2023-01-13T11:10:59.915Z,0.30
2023-01-13T11:14:02.865Z,0.40
2023-01-13T11:16:30.163Z,0.60
2023-01-13T11:19:13.519Z,0.40
2023-01-13T11:21:50.031Z,0.73
2023-01-13T11:24:36.863Z,0.30
2023-01-13T11:27:22.836Z,0.57
2023-01-13T11:30:02.347Z,0.40
2023-01-13T11:32:35.544Z,1.20
2023-01-13T11:35:10.073Z,0.40
2023-01-13T11:37:43.666Z,0.97
2023-01-13T11:40:17.038Z,0.40
2023-01-13T11:43:01.793Z,0.87
2023-01-13T11:45:56.058Z,0.73
2023-01-13T11:48:29.396Z,0.33
2023-01-13T11:51:20.070Z,0.43
2023-01-13T11:54:17.672Z,0.37
2023-01-13T11:57:26.204Z,0.40
2023-01-13T12:00:28.185Z,0.43
2023-01-13T12:03:27.055Z,0.43
2023-01-13T12:06:03.675Z,0.50
2023-01-13T12:09:12.036Z,0.50
2023-01-13T12:12:12.665Z,0.50
2023-01-13T12:15:03.633Z,1.53
2023-01-13T12:17:56.359Z,0.70
2023-01-13T12:20:29.566Z,0.77
2023-01-13T12:22:59.695Z,0.80
2023-01-13T12:25:37.649Z,1.30
2023-01-13T12:28:28.703Z,1.10
2023-01-13T12:31:01.616Z,1.60
2023-01-13T12:33:47.222Z,1.67
2023-01-13T12:36:45.361Z,1.30
2023-01-13T12:39:24.283Z,1.60
2023-01-13T12:42:20.522Z,1.70
2023-01-13T12:45:06.519Z,2.17
2023-01-13T12:47:36.467Z,1.83
2023-01-13T12:50:22.625Z,1.93
2023-01-13T12:52:52.835Z,2.00
2023-01-13T12:55:22.257Z,1.90
2023-01-13T12:58:14.662Z,2.17
2023-01-13T13:00:41.760Z,2.10
2023-01-13T13:03:16.243Z,1.90
2023-01-13T13:06:06.469Z,2.87
2023-01-13T13:08:55.191Z,1.93
2023-01-13T13:11:58.954Z,2.43
2023-01-13T13:14:38.360Z,1.70
2023-01-13T13:17:28.600Z,1.93
2023-01-13T13:20:00.396Z,3.07
2023-01-13T13:22:27.506Z,2.10
2023-01-13T13:25:00.337Z,2.47
2023-01-13T13:27:44.484Z,1.70
2023-01-13T13:30:27.760Z,2.10
2023-01-13T13:33:25.349Z,3.73
2023-01-13T13:35:58.360Z,2.67
2023-01-13T13:39:21.051Z,2.47
2023-01-13T13:42:11.571Z,5.17
2023-01-13T13:45:00.076Z,3.03
2023-01-13T13:47:36.404Z,3.30
2023-01-13T13:50:16.481Z,3.73
2023-01-13T13:52:51.931Z,5.33
2023-01-13T13:55:21.166Z,4.33
2023-01-13T13:57:51.103Z,4.83
2023-01-13T14:00:32.161Z,2.70
2023-01-13T14:03:01.864Z,5.80
2023-01-13T14:05:37.287Z,5.60
2023-01-13T14:08:16.738Z,7.47
2023-01-13T14:10:46.311Z,7.03
2023-01-13T14:13:25.067Z,4.87
2023-01-13T14:16:00.486Z,6.23
2023-01-13T14:18:29.640Z,5.40
2023-01-13T14:21:00.851Z,5.90
2023-01-13T14:23:31.447Z,5.23
2023-01-13T14:26:10.086Z,3.53
2023-01-13T14:28:38.798Z,5.47
2023-01-13T14:31:08.115Z,5.73
2023-01-13T14:33:50.677Z,8.27
2023-01-13T14:36:33.099Z,8.57
2023-01-13T14:39:03.245Z,5.73
2023-01-13T14:41:49.138Z,4.93
2023-01-13T14:44:29.880Z,5.80
2023-01-13T14:47:03.603Z,3.47
2023-01-13T14:50:03.391Z,5.47
2023-01-13T14:52:34.235Z,2.67
2023-01-13T14:55:08.814Z,3.97
2023-01-13T14:57:47.069Z,5.60
2023-01-13T15:00:14.217Z,6.63
2023-01-13T15:02:42.959Z,5.27
2023-01-13T15:05:19.338Z,6.73
2023-01-13T15:07:56.847Z,7.83
2023-01-13T15:10:35.153Z,4.60
2023-01-13T15:13:05.521Z,5.53
2023-01-13T15:15:38.134Z,4.63
2023-01-13T15:18:17.505Z,5.17
2023-01-13T15:20:45.295Z,5.83
2023-01-13T15:23:12.810Z,11.23
2023-01-13T15:25:42.356Z,9.73
2023-01-13T15:28:28.470Z,11.33
2023-01-13T15:31:00.645Z,9.83
2023-01-13T15:33:28.168Z,9.20
2023-01-13T15:35:55.648Z,8.60
2023-01-13T15:38:24.726Z,8.23
2023-01-13T15:40:53.002Z,8.10
2023-01-13T15:43:41.699Z,8.87
2023-01-13T15:46:46.040Z,7.97
2023-01-13T15:49:36.653Z,6.57
2023-01-13T15:52:12.079Z,9.50
2023-01-13T15:54:39.256Z,8.07
2023-01-13T15:57:07.087Z,7.03
2023-01-13T15:59:34.591Z,8.67
2023-01-13T16:02:01.760Z,6.50
2023-01-13T16:04:28.909Z,8.37
2023-01-13T16:06:56.362Z,8.53
2023-01-13T16:09:23.872Z,7.40
2023-01-13T16:11:51.060Z,7.97
2023-01-13T16:14:18.260Z,6.50
2023-01-13T16:16:45.417Z,11.30
2023-01-13T16:19:13.030Z,7.57
2023-01-13T16:21:40.624Z,11.20
2023-01-13T16:24:07.818Z,6.33
2023-01-13T16:26:37.439Z,10.20
2023-01-13T16:29:06.022Z,10.10
2023-01-13T16:31:34.354Z,9.33
2023-01-13T16:34:03.948Z,9.43
2023-01-13T16:36:35.090Z,9.43
2023-01-13T16:39:02.825Z,10.67
2023-01-13T16:41:30.014Z,14.07
2023-01-13T16:43:57.201Z,8.50
2023-01-13T16:46:29.358Z,15.07
2023-01-13T16:49:01.845Z,8.40
2023-01-13T16:51:29.026Z,13.07
2023-01-13T16:53:56.256Z,12.93
2023-01-13T16:56:26.722Z,11.23
2023-01-13T16:58:56.501Z,9.60
2023-01-13T17:01:27.247Z,13.77
2023-01-13T17:03:54.878Z,12.53
2023-01-13T17:06:32.106Z,14.27
2023-01-13T17:09:08.054Z,13.90
2023-01-13T17:11:35.459Z,16.13
2023-01-13T17:14:04.409Z,12.10
2023-01-13T17:16:46.353Z,12.00
2023-01-13T17:19:13.866Z,10.57
2023-01-13T17:21:42.875Z,11.97
2023-01-13T17:24:12.613Z,6.30
2023-01-13T17:26:47.661Z,8.70
2023-01-13T17:29:22.086Z,12.30
2023-01-13T17:31:50.482Z,12.23
2023-01-13T17:34:18.006Z,9.10
2023-01-13T17:36:45.358Z,11.00
2023-01-13T17:39:18.286Z,18.50
2023-01-13T17:41:46.600Z,14.53
2023-01-13T17:44:19.302Z,16.00
2023-01-13T17:46:47.596Z,16.27
2023-01-13T17:49:17.159Z,9.87
2023-01-13T17:51:48.195Z,20.33
2023-01-13T17:54:15.906Z,15.30
2023-01-13T17:56:44.117Z,14.90
2023-01-13T17:59:17.523Z,14.33
2023-01-13T18:01:45.717Z,23.53
2023-01-13T18:04:21.693Z,14.47
2023-01-13T18:06:49.657Z,67.17
2023-01-13T18:09:18.019Z,15.60
2023-01-13T18:11:47.199Z,18.37
2023-01-13T18:14:14.613Z,14.03
2023-01-13T18:16:41.998Z,22.37
2023-01-13T18:19:28.934Z,29.50
2023-01-13T18:22:14.669Z,19.63
2023-01-13T18:25:02.820Z,18.83
2023-01-13T18:27:37.699Z,13.47
2023-01-13T18:30:07.700Z,16.37
2023-01-13T18:32:35.400Z,18.70
2023-01-13T18:35:06.811Z,17.27
2023-01-13T18:37:38.920Z,13.60
2023-01-13T18:40:09.397Z,19.27
2023-01-13T18:42:52.308Z,20.07
2023-01-13T18:45:21.789Z,12.93
2023-01-13T18:47:49.836Z,20.00
2023-01-13T18:50:17.694Z,17.73
2023-01-13T18:52:45.130Z,12.13
2023-01-13T18:55:12.607Z,12.37
2023-01-13T18:57:40.692Z,20.27
2023-01-13T19:00:13.752Z,12.03
2023-01-13T19:02:41.072Z,12.33
2023-01-13T19:05:09.196Z,14.43
2023-01-13T19:07:36.959Z,24.47
2023-01-13T19:10:08.211Z,20.00
2023-01-13T19:12:35.927Z,20.57
2023-01-13T19:15:03.349Z,25.07
2023-01-13T19:17:33.804Z,20.20
2023-01-13T19:20:01.455Z,14.73
2023-01-13T19:22:32.875Z,22.70
2023-01-13T19:25:01.499Z,18.13
2023-01-13T19:27:29.629Z,20.70
2023-01-13T19:30:03.950Z,12.87
2023-01-13T19:32:33.301Z,19.33
2023-01-13T19:35:01.253Z,21.83
2023-01-13T19:37:30.531Z,15.00
2023-01-13T19:39:59.281Z,21.03
2023-01-13T19:42:45.710Z,19.47
2023-01-13T19:45:26.610Z,13.43
2023-01-13T19:47:57.762Z,18.90
2023-01-13T19:50:25.609Z,23.33
2023-01-13T19:52:53.232Z,21.40
2023-01-13T19:55:20.654Z,22.93
2023-01-13T19:57:47.929Z,22.93
2023-01-13T20:00:20.738Z,20.37
2023-01-13T20:02:49.800Z,19.77
2023-01-13T20:05:21.553Z,17.40
2023-01-13T20:07:50.114Z,16.43
2023-01-13T20:10:19.853Z,22.20
2023-01-13T20:12:47.178Z,17.57
2023-01-13T20:15:14.957Z,21.97
2023-01-13T20:17:42.987Z,21.00
2023-01-13T20:20:10.986Z,16.57
2023-01-13T20:22:42.679Z,25.27
2023-01-13T20:25:11.818Z,21.97
2023-01-13T20:27:39.026Z,17.13
2023-01-13T20:30:09.767Z,18.00
2023-01-13T20:32:37.489Z,21.57
2023-01-13T20:35:05.365Z,17.03
2023-01-13T20:37:33.087Z,17.80
2023-01-13T20:40:03.414Z,17.87
2023-01-13T20:42:31.741Z,17.60
2023-01-13T20:45:00.291Z,19.03
2023-01-13T20:47:29.359Z,17.77
2023-01-13T20:49:56.556Z,21.47
2023-01-13T20:52:24.054Z,22.80
2023-01-13T20:54:51.391Z,14.40
2023-01-13T20:57:18.825Z,16.00
2023-01-13T20:59:46.233Z,17.00
2023-01-13T21:02:15.811Z,17.47
2023-01-13T21:04:43.649Z,16.37
2023-01-13T21:07:10.916Z,12.80
2023-01-13T21:09:38.438Z,18.43
2023-01-13T21:12:25.177Z,19.97
2023-01-13T21:15:11.561Z,24.30
2023-01-13T21:17:57.224Z,25.67
2023-01-13T21:20:24.577Z,18.27
2023-01-13T21:22:52.377Z,21.73
2023-01-13T21:25:20.393Z,20.63
2023-01-13T21:27:47.648Z,16.30
2023-01-13T21:30:17.133Z,20.00
2023-01-13T21:32:45.774Z,21.67
2023-01-13T21:35:14.148Z,22.03
2023-01-13T21:37:43.304Z,15.90
2023-01-13T21:40:12.973Z,11.40
2023-01-13T21:42:59.837Z,20.33
2023-01-13T21:45:46.152Z,15.57
2023-01-13T21:48:13.543Z,21.43
2023-01-13T21:50:41.277Z,16.03
2023-01-13T21:53:08.476Z,19.67
2023-01-13T21:55:37.018Z,15.97
2023-01-13T21:58:13.078Z,18.73
2023-01-13T22:00:44.088Z,15.57
2023-01-13T22:03:14.047Z,27.20
2023-01-13T22:05:41.554Z,16.23
2023-01-13T22:08:09.004Z,20.60
2023-01-13T22:10:36.182Z,14.80
2023-01-13T22:13:22.799Z,15.43
2023-01-13T22:15:50.215Z,12.10
2023-01-13T22:18:18.464Z,19.23
2023-01-13T22:20:46.166Z,13.53
2023-01-13T22:23:14.000Z,17.93
2023-01-13T22:25:41.176Z,13.43
2023-01-13T22:28:09.459Z,16.73
2023-01-13T22:30:36.780Z,12.90
2023-01-13T22:33:04.047Z,14.90
2023-01-13T22:35:31.332Z,13.03
2023-01-13T22:37:58.727Z,12.97
2023-01-13T22:40:26.153Z,15.03
2023-01-13T22:42:53.312Z,21.03
2023-01-13T22:45:20.489Z,18.50
2023-01-13T22:47:49.751Z,19.20
2023-01-13T22:50:20.959Z,17.87
2023-01-13T22:52:48.260Z,19.40
2023-01-13T22:55:15.750Z,19.13
2023-01-13T22:57:48.167Z,16.30
2023-01-13T23:00:19.422Z,12.97
2023-01-13T23:02:47.028Z,12.57
2023-01-13T23:05:14.287Z,18.33
2023-01-13T23:07:41.459Z,18.17
2023-01-13T23:10:09.428Z,17.77
2023-01-13T23:12:36.747Z,13.73
2023-01-13T23:15:04.457Z,21.70
2023-01-13T23:17:31.792Z,12.67
2023-01-13T23:19:59.014Z,17.50
2023-01-13T23:22:26.168Z,14.17
2023-01-13T23:24:53.397Z,18.70
2023-01-13T23:27:20.506Z,17.17
2023-01-13T23:29:47.684Z,15.03
2023-01-13T23:32:14.851Z,13.93
2023-01-13T23:34:41.997Z,10.53
2023-01-13T23:37:09.155Z,7.93
2023-01-13T23:39:36.342Z,11.60
2023-01-13T23:42:03.588Z,16.37
2023-01-13T23:44:30.711Z,15.57
2023-01-13T23:46:58.136Z,13.20
2023-01-13T23:49:25.402Z,16.07
2023-01-13T23:51:52.824Z,17.10
2023-01-13T23:54:20.122Z,13.40
2023-01-13T23:56:50.437Z,12.87
2023-01-13T23:59:17.563Z,12.53
